Time;durP1;ratioP1;P1;durP2;ratioP2;P2;SDS_P1;SDS_P2;PMS_P1;PMS_P2;Temp;Humidity;BMP_temperature;BMP_pressure;BME280_temperature;BME280_humidity;BME280_pressure;Samples;Min_cycle;Max_cycle;Signal;HPM_P1;HPM_P2
2021/07/31 00:00:21;;;;;;;0.82;0.68;;;24.90;53.70;;;;;;6243872;28;20400;-72
2021/07/31 00:03:23;;;;;;;2.17;0.60;;;24.90;53.80;;;;;;6243113;28;20040;-72
2021/07/31 00:06:23;;;;;;;1.08;0.80;;;24.80;53.70;;;;;;6242338;28;20358;-72
2021/07/31 00:09:23;;;;;;;0.85;0.73;;;24.80;53.70;;;;;;6243745;28;20025;-72
2021/07/31 00:12:24;;;;;;;1.45;0.80;;;24.80;53.70;;;;;;6243694;28;20048;-71
2021/07/31 00:15:25;;;;;;;0.60;0.50;;;24.80;53.70;;;;;;6234079;28;20033;-71
2021/07/31 00:18:25;;;;;;;0.70;0.60;;;24.80;53.70;;;;;;6243883;28;20487;-71
2021/07/31 00:21:26;;;;;;;1.10;0.75;;;24.80;53.80;;;;;;6243614;28;20417;-71
2021/07/31 00:24:26;;;;;;;1.25;0.82;;;24.80;53.80;;;;;;6243266;28;20117;-72
2021/07/31 00:27:27;;;;;;;1.33;0.80;;;24.80;53.80;;;;;;6243430;28;20022;-72
2021/07/31 00:30:28;;;;;;;2.15;0.60;;;24.80;53.80;;;;;;6243009;28;20017;-71
2021/07/31 00:33:28;;;;;;;1.58;0.80;;;24.80;53.80;;;;;;6243002;28;20038;-72
2021/07/31 00:36:29;;;;;;;0.90;0.73;;;24.80;53.80;;;;;;6243318;28;20022;-72
2021/07/31 00:39:31;;;;;;;1.10;0.93;;;24.80;53.80;;;;;;6243147;28;20373;-72
2021/07/31 00:42:31;;;;;;;0.98;0.70;;;24.80;53.90;;;;;;6243194;28;20384;-71
2021/07/31 00:45:33;;;;;;;0.88;0.82;;;24.80;53.90;;;;;;6243477;28;20064;-72
2021/07/31 00:48:34;;;;;;;1.17;0.80;;;24.80;53.90;;;;;;6243381;28;20516;-72
2021/07/31 00:51:35;;;;;;;1.02;0.80;;;24.80;53.90;;;;;;6242960;28;20033;-72
2021/07/31 00:54:35;;;;;;;1.00;0.88;;;24.80;54.00;;;;;;6242787;28;20028;-72
2021/07/31 00:57:40;;;;;;;1.02;0.80;;;24.80;54.10;;;;;;6242151;28;20123;-72
2021/07/31 01:00:40;;;;;;;2.10;0.93;;;24.80;54.00;;;;;;6242334;28;20021;-71
2021/07/31 01:03:40;;;;;;;0.90;0.80;;;24.80;54.00;;;;;;6242112;28;20334;-72
2021/07/31 01:06:41;;;;;;;1.42;0.68;;;24.80;54.10;;;;;;6242795;28;20036;-72
2021/07/31 01:09:42;;;;;;;1.00;0.90;;;24.80;54.00;;;;;;6242384;28;20028;-72
2021/07/31 01:12:44;;;;;;;1.40;0.93;;;24.80;54.10;;;;;;6242736;28;20096;-72
2021/07/31 01:16:03;;;;;;;1.20;0.90;;;24.80;54.10;;;;;;6220727;28;20036;-72
2021/07/31 01:19:04;;;;;;;1.45;1.00;;;24.80;54.10;;;;;;6242590;28;20200;-72
2021/07/31 01:22:04;;;;;;;1.02;0.80;;;24.80;54.10;;;;;;6242195;28;20530;-72
2021/07/31 01:25:06;;;;;;;0.73;0.73;;;24.80;54.10;;;;;;6241881;28;20071;-72
2021/07/31 01:28:06;;;;;;;1.42;0.80;;;24.80;54.10;;;;;;6241572;28;20108;-72
2021/07/31 01:31:07;;;;;;;1.52;0.85;;;24.80;54.10;;;;;;6241856;28;20075;-72
2021/07/31 01:34:07;;;;;;;0.80;0.70;;;24.80;54.10;;;;;;6241912;28;20042;-72
2021/07/31 01:37:08;;;;;;;1.10;0.80;;;24.80;54.20;;;;;;6241960;28;20032;-71
2021/07/31 01:40:09;;;;;;;1.33;0.93;;;24.80;54.10;;;;;;6242369;28;20040;-72
2021/07/31 01:43:10;;;;;;;1.10;0.90;;;24.80;54.20;;;;;;6241332;28;20041;-72
2021/07/31 01:46:10;;;;;;;1.10;1.00;;;24.80;54.20;;;;;;6241161;28;20032;-72
2021/07/31 01:49:11;;;;;;;1.00;0.70;;;24.80;54.20;;;;;;6241818;28;20029;-71
2021/07/31 01:52:11;;;;;;;0.80;0.65;;;24.80;54.20;;;;;;6241217;28;20028;-72
2021/07/31 01:55:13;;;;;;;1.05;0.95;;;24.80;54.30;;;;;;6241287;28;20086;-72
2021/07/31 01:58:13;;;;;;;0.93;0.80;;;24.80;54.20;;;;;;6241731;28;20080;-72
2021/07/31 02:01:13;;;;;;;1.33;0.88;;;24.80;54.30;;;;;;6241346;28;20033;-72
2021/07/31 02:04:14;;;;;;;1.00;0.70;;;24.80;55.00;;;;;;6239983;28;20026;-72
2021/07/31 02:07:14;;;;;;;0.75;0.68;;;24.80;54.30;;;;;;6240943;28;20021;-72
2021/07/31 02:10:15;;;;;;;0.70;0.70;;;24.80;54.30;;;;;;6241561;28;20033;-71
2021/07/31 02:13:16;;;;;;;0.98;0.70;;;24.80;54.30;;;;;;6236752;28;20493;-71
2021/07/31 02:16:26;;;;;;;1.10;0.90;;;24.80;54.30;;;;;;6216842;28;20033;-71
2021/07/31 02:19:30;;;;;;;0.80;0.80;;;24.80;54.40;;;;;;6238646;28;20039;-71
2021/07/31 02:22:30;;;;;;;1.10;0.85;;;24.80;54.40;;;;;;6240790;28;20034;-72
2021/07/31 02:25:31;;;;;;;0.88;0.82;;;24.80;54.40;;;;;;6241003;28;20044;-72
2021/07/31 02:28:31;;;;;;;1.10;0.90;;;24.80;54.40;;;;;;6240278;28;20104;-72
2021/07/31 02:31:32;;;;;;;0.98;0.80;;;24.80;54.40;;;;;;6240668;28;20402;-72
2021/07/31 02:34:32;;;;;;;0.90;0.70;;;24.80;54.50;;;;;;6241092;28;20029;-71
2021/07/31 02:37:33;;;;;;;1.33;0.70;;;24.80;54.40;;;;;;6240670;28;20021;-71
2021/07/31 02:40:33;;;;;;;1.58;0.90;;;24.80;54.50;;;;;;6241525;28;20036;-72
2021/07/31 02:43:34;;;;;;;1.13;0.90;;;24.80;54.50;;;;;;6240528;28;20240;-72
2021/07/31 02:46:35;;;;;;;1.00;0.90;;;24.80;54.50;;;;;;6241080;28;20097;-72
2021/07/31 02:49:36;;;;;;;0.80;0.77;;;24.80;54.50;;;;;;6240907;28;20117;-72
2021/07/31 02:52:36;;;;;;;0.75;0.75;;;24.80;54.50;;;;;;6238942;28;20022;-72
2021/07/31 02:55:37;;;;;;;0.50;0.50;;;24.80;54.50;;;;;;6240852;28;20057;-71
2021/07/31 02:58:37;;;;;;;1.02;0.73;;;24.80;54.50;;;;;;6240396;28;20492;-71
2021/07/31 03:01:38;;;;;;;0.95;0.70;;;24.80;54.50;;;;;;6240846;28;20049;-71
2021/07/31 03:04:38;;;;;;;0.90;0.80;;;24.80;54.50;;;;;;6240458;28;20518;-72
2021/07/31 03:07:39;;;;;;;0.93;0.70;;;24.80;54.80;;;;;;6240289;28;20040;-71
2021/07/31 03:10:39;;;;;;;1.00;0.60;;;24.80;54.60;;;;;;6240075;28;20105;-71
2021/07/31 03:13:40;;;;;;;0.63;0.55;;;24.80;54.50;;;;;;6238725;28;20053;-71
2021/07/31 03:16:40;;;;;;;0.77;0.65;;;24.80;54.60;;;;;;6240727;28;20297;-72
2021/07/31 03:19:41;;;;;;;0.70;0.70;;;24.80;54.60;;;;;;6240302;28;20026;-72
2021/07/31 03:22:41;;;;;;;0.70;0.60;;;24.80;54.60;;;;;;6239493;28;20052;-72
2021/07/31 03:25:42;;;;;;;0.57;0.57;;;24.80;54.60;;;;;;6240044;28;20079;-71
2021/07/31 03:28:43;;;;;;;0.60;0.60;;;24.80;54.60;;;;;;6244449;28;20036;-72
2021/07/31 03:31:43;;;;;;;1.77;0.57;;;24.80;54.60;;;;;;6240231;28;20034;-72
2021/07/31 03:34:44;;;;;;;0.90;0.70;;;24.80;54.60;;;;;;6240313;28;20035;-71
2021/07/31 03:37:44;;;;;;;0.60;0.60;;;24.80;54.60;;;;;;6240673;28;20042;-71
2021/07/31 03:40:45;;;;;;;1.23;0.90;;;24.80;54.60;;;;;;6244342;28;20033;-71
2021/07/31 03:43:45;;;;;;;0.52;0.52;;;24.80;54.60;;;;;;6244144;28;20025;-71
2021/07/31 03:46:48;;;;;;;0.80;0.75;;;24.80;54.60;;;;;;6244568;28;20021;-71
2021/07/31 03:49:49;;;;;;;1.00;0.80;;;24.80;54.60;;;;;;6244240;28;20033;-71
2021/07/31 03:52:49;;;;;;;0.60;0.55;;;24.80;54.70;;;;;;6244126;28;20037;-71
2021/07/31 03:55:50;;;;;;;0.77;0.70;;;24.80;54.70;;;;;;6244042;28;20048;-71
2021/07/31 03:58:52;;;;;;;0.80;0.70;;;24.80;54.70;;;;;;6244006;28;20288;-72
2021/07/31 04:01:55;;;;;;;0.65;0.63;;;24.80;54.70;;;;;;6244414;28;20484;-71
2021/07/31 04:04:55;;;;;;;0.82;0.80;;;24.80;54.70;;;;;;6244453;28;20034;-71
2021/07/31 04:07:56;;;;;;;1.75;0.60;;;24.80;54.70;;;;;;6244258;28;20065;-72
2021/07/31 04:10:56;;;;;;;1.15;0.80;;;24.80;54.70;;;;;;6243762;28;20048;-72
2021/07/31 04:13:57;;;;;;;0.70;0.60;;;24.80;54.70;;;;;;6234024;28;20034;-72
2021/07/31 04:16:57;;;;;;;0.68;0.60;;;24.80;54.80;;;;;;6240432;28;20036;-71
2021/07/31 04:19:58;;;;;;;0.68;0.50;;;24.80;54.80;;;;;;6243993;28;20520;-72
2021/07/31 04:22:58;;;;;;;1.02;0.80;;;24.80;54.80;;;;;;6243643;28;20037;-71
2021/07/31 04:25:59;;;;;;;0.77;0.70;;;24.80;54.80;;;;;;6243564;28;20029;-71
2021/07/31 04:28:59;;;;;;;0.70;0.60;;;24.80;54.80;;;;;;6243510;28;20025;-71
2021/07/31 04:32:00;;;;;;;0.88;0.60;;;24.80;54.80;;;;;;6243292;28;20049;-71
2021/07/31 04:35:02;;;;;;;0.85;0.80;;;24.80;54.80;;;;;;6243552;28;20033;-71
2021/07/31 04:38:03;;;;;;;0.50;0.50;;;24.80;54.80;;;;;;6243872;28;20028;-72
2021/07/31 04:41:05;;;;;;;0.60;0.60;;;24.80;54.80;;;;;;6242946;28;20034;-71
2021/07/31 04:44:05;;;;;;;1.30;0.80;;;24.80;54.80;;;;;;6243539;28;20128;-71
2021/07/31 04:47:07;;;;;;;0.65;0.65;;;24.80;54.80;;;;;;6243291;28;20025;-71
2021/07/31 04:50:10;;;;;;;0.82;0.63;;;24.80;54.80;;;;;;6242238;28;20025;-71
2021/07/31 04:53:10;;;;;;;0.63;0.63;;;24.80;54.80;;;;;;6242702;28;20022;-71
2021/07/31 04:56:11;;;;;;;0.80;0.70;;;24.80;54.90;;;;;;6242820;28;20050;-71
2021/07/31 04:59:11;;;;;;;0.98;0.80;;;24.80;54.90;;;;;;6243261;28;20082;-71
2021/07/31 05:02:12;;;;;;;0.65;0.50;;;24.80;54.90;;;;;;6240826;28;20069;-72
2021/07/31 05:05:12;;;;;;;1.05;0.60;;;24.80;54.90;;;;;;6242653;28;20034;-71
2021/07/31 05:08:14;;;;;;;0.85;0.63;;;24.70;54.80;;;;;;6242295;28;20101;-71
2021/07/31 05:11:18;;;;;;;1.13;0.50;;;24.80;54.90;;;;;;6242822;28;20068;-71
2021/07/31 05:14:18;;;;;;;0.70;0.57;;;24.80;54.90;;;;;;6230101;28;20030;-72
2021/07/31 05:17:20;;;;;;;0.60;0.60;;;24.80;55.00;;;;;;6231606;28;20375;-71
2021/07/31 05:20:20;;;;;;;0.70;0.57;;;24.80;54.90;;;;;;6242423;28;20037;-71
2021/07/31 05:23:21;;;;;;;0.80;0.60;;;24.80;54.90;;;;;;6241736;28;20155;-72
2021/07/31 05:26:21;;;;;;;0.90;0.70;;;24.80;54.90;;;;;;6241911;28;20112;-71
2021/07/31 05:29:22;;;;;;;0.57;0.57;;;24.80;55.00;;;;;;6242486;28;20014;-72
2021/07/31 05:32:22;;;;;;;0.55;0.50;;;24.80;55.00;;;;;;6241629;28;20080;-71
2021/07/31 05:35:23;;;;;;;0.75;0.57;;;24.80;55.00;;;;;;6241957;28;20049;-71
2021/07/31 05:38:23;;;;;;;0.60;0.60;;;24.80;55.00;;;;;;6240552;28;20317;-72
2021/07/31 05:41:24;;;;;;;0.60;0.60;;;24.80;55.00;;;;;;6241957;28;20055;-72
2021/07/31 05:44:24;;;;;;;1.13;0.60;;;24.70;54.90;;;;;;6241481;28;20041;-72
2021/07/31 05:47:26;;;;;;;0.50;0.50;;;24.70;54.90;;;;;;6241764;28;20480;-72
2021/07/31 05:50:27;;;;;;;0.50;0.50;;;24.70;54.90;;;;;;6241513;28;20025;-72
2021/07/31 05:53:28;;;;;;;0.95;0.60;;;24.80;55.00;;;;;;6242015;28;20032;-71
2021/07/31 05:56:28;;;;;;;0.50;0.50;;;24.70;55.00;;;;;;6241084;28;20053;-71
2021/07/31 05:59:29;;;;;;;0.52;0.52;;;24.80;55.00;;;;;;6241041;28;20069;-71
2021/07/31 06:02:29;;;;;;;0.63;0.63;;;24.80;55.00;;;;;;6240027;28;20489;-72
2021/07/31 06:05:29;;;;;;;0.82;0.50;;;24.70;55.00;;;;;;6241721;28;20033;-71
2021/07/31 06:08:30;;;;;;;0.75;0.57;;;24.70;55.00;;;;;;6233944;28;20052;-71
2021/07/31 06:11:31;;;;;;;0.50;0.50;;;24.70;55.00;;;;;;6227301;28;20033;-71
2021/07/31 06:14:36;;;;;;;0.60;0.50;;;24.70;55.00;;;;;;6225706;28;20030;-71
2021/07/31 06:17:37;;;;;;;0.70;0.60;;;24.70;55.00;;;;;;6238731;28;20025;-71
2021/07/31 06:20:38;;;;;;;0.93;0.63;;;24.80;55.10;;;;;;6240624;28;20454;-71
2021/07/31 06:23:38;;;;;;;0.55;0.55;;;24.70;55.00;;;;;;6240095;28;20069;-71
2021/07/31 06:26:39;;;;;;;1.42;0.60;;;24.70;55.00;;;;;;6217028;28;20393;-72
2021/07/31 06:29:40;;;;;;;4.65;0.95;;;24.70;54.80;;;;;;6238888;28;20046;-71
2021/07/31 06:32:41;;;;;;;2.75;0.90;;;24.70;54.60;;;;;;6240733;28;20026;-71
2021/07/31 06:35:41;;;;;;;1.83;0.88;;;24.80;54.20;;;;;;6234108;28;20412;-71
2021/07/31 06:38:41;;;;;;;2.38;0.77;;;24.70;54.80;;;;;;6229475;28;20025;-71
2021/07/31 06:41:42;;;;;;;2.85;0.75;;;24.70;54.30;;;;;;6241156;28;20025;-71
2021/07/31 06:44:42;;;;;;;1.58;0.70;;;24.70;54.50;;;;;;6240786;28;20029;-72
2021/07/31 06:47:43;;;;;;;1.08;0.73;;;24.70;54.70;;;;;;6240961;28;20061;-71
2021/07/31 06:50:43;;;;;;;0.95;0.80;;;24.80;55.60;;;;;;6241063;28;20301;-72
2021/07/31 06:53:44;;;;;;;0.85;0.70;;;24.80;54.80;;;;;;6240211;28;20028;-71
2021/07/31 06:56:45;;;;;;;0.70;0.57;;;24.70;54.80;;;;;;6240472;28;20140;-71
2021/07/31 06:59:45;;;;;;;2.30;0.82;;;24.70;54.80;;;;;;6240441;28;20029;-71
2021/07/31 07:02:46;;;;;;;1.17;0.50;;;24.70;54.80;;;;;;6240170;28;20385;-71
2021/07/31 07:05:46;;;;;;;0.98;0.60;;;24.80;54.90;;;;;;6240605;28;20030;-72
2021/07/31 07:08:47;;;;;;;1.45;0.73;;;24.70;54.80;;;;;;6240517;28;20493;-72
2021/07/31 07:11:48;;;;;;;1.00;0.60;;;24.70;54.90;;;;;;6240545;28;20022;-71
2021/07/31 07:14:48;;;;;;;0.98;0.70;;;24.70;54.90;;;;;;6241663;28;20091;-71
2021/07/31 07:17:49;;;;;;;0.50;0.50;;;24.70;54.90;;;;;;6245234;28;20025;-71
2021/07/31 07:20:49;;;;;;;0.80;0.55;;;24.80;55.00;;;;;;6244987;28;20029;-71
2021/07/31 07:23:50;;;;;;;1.50;0.60;;;24.70;54.90;;;;;;6245162;28;20065;-71
2021/07/31 07:26:50;;;;;;;3.08;0.68;;;24.70;54.90;;;;;;6244976;28;20022;-71
2021/07/31 07:29:51;;;;;;;1.50;0.70;;;24.80;55.00;;;;;;6244840;28;20053;-71
2021/07/31 07:32:51;;;;;;;0.50;0.50;;;24.70;54.90;;;;;;6244439;28;20320;-71
2021/07/31 07:35:52;;;;;;;1.50;0.70;;;24.70;54.90;;;;;;6244733;28;20064;-72
2021/07/31 07:38:53;;;;;;;0.82;0.60;;;24.80;55.10;;;;;;6244938;28;20021;-72
2021/07/31 07:41:53;;;;;;;1.15;0.57;;;24.80;55.10;;;;;;6244367;28;20034;-71
2021/07/31 07:44:54;;;;;;;0.75;0.60;;;24.70;54.90;;;;;;6244337;28;20108;-71
2021/07/31 07:47:55;;;;;;;1.40;0.82;;;24.70;55.00;;;;;;6244621;28;20033;-72
2021/07/31 07:50:55;;;;;;;0.98;0.60;;;24.70;55.00;;;;;;6244273;28;20463;-71
2021/07/31 07:53:56;;;;;;;0.88;0.68;;;24.70;55.00;;;;;;6244233;28;20026;-71
2021/07/31 07:56:57;;;;;;;1.02;0.50;;;24.70;55.00;;;;;;6243694;28;20104;-71
2021/07/31 07:59:58;;;;;;;1.65;0.80;;;24.70;55.00;;;;;;6244148;28;20022;-71
2021/07/31 08:02:58;;;;;;;0.60;0.40;;;24.70;55.00;;;;;;6244107;28;20536;-71
2021/07/31 08:05:59;;;;;;;0.93;0.70;;;24.70;55.10;;;;;;6243786;28;20030;-71
2021/07/31 08:08:59;;;;;;;3.70;0.75;;;24.70;55.00;;;;;;6243573;28;20681;-70
2021/07/31 08:12:00;;;;;;;0.65;0.50;;;24.70;55.00;;;;;;6244010;28;20026;-70
2021/07/31 08:15:00;;;;;;;0.65;0.65;;;24.70;55.70;;;;;;6233475;28;20396;-71
2021/07/31 08:18:01;;;;;;;1.02;0.65;;;24.70;55.00;;;;;;6243735;28;20116;-71
2021/07/31 08:21:02;;;;;;;1.23;0.50;;;24.70;55.10;;;;;;6243592;28;20025;-71
2021/07/31 08:24:03;;;;;;;1.10;0.68;;;24.70;55.10;;;;;;6241858;28;20037;-70
2021/07/31 08:27:03;;;;;;;0.85;0.50;;;24.80;55.10;;;;;;6242438;28;20302;-71
2021/07/31 08:30:05;;;;;;;0.80;0.60;;;24.70;55.10;;;;;;6243258;28;20096;-70
2021/07/31 08:33:06;;;;;;;0.50;0.40;;;24.70;55.10;;;;;;6243375;28;20025;-70
2021/07/31 08:36:07;;;;;;;0.47;0.47;;;24.70;55.10;;;;;;6243293;28;20026;-70
2021/07/31 08:39:08;;;;;;;0.73;0.60;;;24.70;55.10;;;;;;6243676;28;20129;-70
2021/07/31 08:42:12;;;;;;;0.57;0.50;;;24.70;55.10;;;;;;6242760;28;20063;-70
2021/07/31 08:45:15;;;;;;;1.20;0.70;;;24.70;55.10;;;;;;6243373;28;20036;-71
2021/07/31 08:48:17;;;;;;;0.65;0.60;;;24.70;55.10;;;;;;6242950;28;20032;-71
2021/07/31 08:51:19;;;;;;;0.47;0.40;;;24.70;55.10;;;;;;6243276;28;20021;-71
2021/07/31 08:54:20;;;;;;;0.80;0.50;;;24.70;55.20;;;;;;6242700;28;20337;-71
2021/07/31 08:57:20;;;;;;;1.02;0.52;;;24.70;55.20;;;;;;6243237;28;20061;-70
2021/07/31 09:00:21;;;;;;;0.88;0.60;;;24.70;55.20;;;;;;6242335;28;20029;-71
2021/07/31 09:03:22;;;;;;;0.70;0.50;;;24.70;55.10;;;;;;6242341;28;20030;-70
2021/07/31 09:06:30;;;;;;;0.65;0.50;;;24.70;55.20;;;;;;6242429;28;20108;-70
2021/07/31 09:09:30;;;;;;;0.73;0.60;;;24.70;55.10;;;;;;6242591;28;20017;-71
2021/07/31 09:12:31;;;;;;;2.08;0.60;;;24.70;55.20;;;;;;6241983;28;20120;-70
2021/07/31 09:15:40;;;;;;;1.30;0.60;;;24.70;55.20;;;;;;6221065;28;20029;-70
2021/07/31 09:18:43;;;;;;;0.50;0.50;;;24.70;55.10;;;;;;6242144;28;20032;-70
2021/07/31 09:21:45;;;;;;;0.80;0.70;;;24.70;55.20;;;;;;6241856;28;20472;-70
2021/07/31 09:25:07;;;;;;;0.68;0.50;;;24.70;55.20;;;;;;6242309;28;20037;-70
2021/07/31 09:28:18;;;;;;;0.85;0.50;;;24.70;55.20;;;;;;6241659;28;20029;-70
2021/07/31 09:31:20;;;;;;;1.83;0.60;;;24.70;55.20;;;;;;6241634;28;20033;-70
2021/07/31 09:34:35;;;;;;;0.63;0.60;;;24.70;55.20;;;;;;6242238;28;20321;-71
2021/07/31 09:37:46;;;;;;;0.60;0.60;;;24.70;55.20;;;;;;6242098;28;20369;-71
2021/07/31 09:40:47;;;;;;;0.98;0.50;;;24.70;55.20;;;;;;6241690;28;20083;-70
2021/07/31 09:44:09;;;;;;;0.50;0.50;;;24.70;55.20;;;;;;6241542;28;20045;-71
2021/07/31 09:47:10;;;;;;;0.28;0.28;;;24.70;55.30;;;;;;6241623;28;20563;-71
2021/07/31 09:50:11;;;;;;;0.65;0.50;;;24.70;55.20;;;;;;6241896;28;20362;-71
2021/07/31 09:53:14;;;;;;;1.30;0.63;;;24.70;55.20;;;;;;6241206;28;20286;-70
2021/07/31 09:56:14;;;;;;;0.57;0.50;;;24.70;55.30;;;;;;6240223;28;20420;-70
2021/07/31 09:59:20;;;;;;;0.88;0.55;;;24.70;55.30;;;;;;6241462;28;20368;-71
2021/07/31 10:02:21;;;;;;;1.20;0.57;;;24.70;55.30;;;;;;6241560;28;20233;-71
2021/07/31 10:05:22;;;;;;;0.50;0.50;;;24.70;55.30;;;;;;6241887;28;20029;-70
2021/07/31 10:08:22;;;;;;;0.82;0.52;;;24.70;55.30;;;;;;6241125;28;20436;-71
2021/07/31 10:11:23;;;;;;;1.10;0.50;;;24.70;55.30;;;;;;6241447;28;20033;-70
2021/07/31 10:14:24;;;;;;;1.27;0.50;;;24.70;55.30;;;;;;6231901;28;20362;-70
2021/07/31 10:17:30;;;;;;;0.50;0.40;;;24.70;55.30;;;;;;6222285;28;20096;-70
2021/07/31 10:20:31;;;;;;;0.50;0.50;;;24.70;55.30;;;;;;6256285;28;20492;-70
2021/07/31 10:23:57;;;;;;;0.82;0.40;;;24.70;55.30;;;;;;6240745;28;20075;-71
2021/07/31 10:27:16;;;;;;;0.63;0.50;;;24.70;55.30;;;;;;6240759;28;20028;-71
2021/07/31 10:30:38;;;;;;;0.50;0.50;;;24.70;55.30;;;;;;6240375;28;20060;-70
2021/07/31 10:33:44;;;;;;;1.60;0.60;;;24.70;55.30;;;;;;6240883;28;20029;-71
2021/07/31 10:36:46;;;;;;;1.05;0.50;;;24.70;55.30;;;;;;6239913;28;20068;-70
2021/07/31 10:39:47;;;;;;;0.88;0.50;;;24.70;55.30;;;;;;6240906;28;20112;-71
2021/07/31 10:42:47;;;;;;;0.60;0.47;;;24.70;55.30;;;;;;6240568;28;20046;-71
2021/07/31 10:45:49;;;;;;;0.85;0.52;;;24.70;55.30;;;;;;6241164;28;20033;-71
2021/07/31 10:48:50;;;;;;;0.40;0.40;;;24.70;55.30;;;;;;6241974;28;20083;-71
2021/07/31 10:51:50;;;;;;;0.52;0.50;;;24.70;55.30;;;;;;6245693;28;20473;-71
2021/07/31 10:55:01;;;;;;;0.43;0.40;;;24.70;55.30;;;;;;6245721;28;20029;-70
2021/07/31 10:58:01;;;;;;;0.40;0.40;;;24.70;55.30;;;;;;6245688;28;20062;-71
2021/07/31 11:01:22;;;;;;;0.52;0.52;;;24.70;55.30;;;;;;6245372;28;20415;-70
2021/07/31 11:04:57;;;;;;;0.50;0.40;;;24.70;55.30;;;;;;6245376;28;20468;-70
2021/07/31 11:07:57;;;;;;;0.50;0.50;;;24.70;55.30;;;;;;6245581;28;20365;-70
2021/07/31 11:11:19;;;;;;;0.70;0.60;;;24.70;55.30;;;;;;6245448;28;20049;-70
2021/07/31 11:14:20;;;;;;;0.73;0.60;;;24.70;55.30;;;;;;6239837;28;20485;-71
2021/07/31 11:17:20;;;;;;;0.80;0.45;;;24.70;55.30;;;;;;6245477;28;20034;-70
2021/07/31 11:20:28;;;;;;;0.47;0.43;;;24.70;55.40;;;;;;6242935;28;20080;-70
2021/07/31 11:23:29;;;;;;;0.77;0.50;;;24.70;55.40;;;;;;6244650;28;20045;-70
2021/07/31 11:26:42;;;;;;;0.45;0.40;;;24.70;55.40;;;;;;6245508;28;20562;-71
2021/07/31 11:29:53;;;;;;;0.60;0.50;;;24.70;55.30;;;;;;6245128;28;20031;-71
2021/07/31 11:32:53;;;;;;;0.60;0.40;;;24.70;55.30;;;;;;6243390;28;20026;-70
2021/07/31 11:35:56;;;;;;;0.98;0.40;;;24.70;55.40;;;;;;6244612;28;20096;-70
2021/07/31 11:38:57;;;;;;;0.45;0.40;;;24.70;55.40;;;;;;6244938;28;20112;-70
2021/07/31 11:41:58;;;;;;;0.50;0.50;;;24.70;55.40;;;;;;6244475;28;20029;-70
2021/07/31 11:45:04;;;;;;;1.08;0.60;;;24.70;55.40;;;;;;6244497;28;20053;-70
2021/07/31 11:48:08;;;;;;;0.70;0.50;;;24.70;55.40;;;;;;6244304;28;20053;-70
2021/07/31 11:51:08;;;;;;;0.60;0.57;;;24.70;55.40;;;;;;6244629;28;20435;-70
2021/07/31 11:54:09;;;;;;;0.43;0.43;;;24.70;55.40;;;;;;6243942;28;20052;-70
2021/07/31 11:57:14;;;;;;;0.40;0.40;;;24.70;55.40;;;;;;6244271;28;20049;-70
2021/07/31 12:00:15;;;;;;;0.55;0.50;;;24.70;55.40;;;;;;6243766;28;20040;-70
2021/07/31 12:03:48;;;;;;;0.57;0.40;;;24.70;55.40;;;;;;6243957;28;20080;-71
2021/07/31 12:06:50;;;;;;;0.40;0.40;;;24.70;55.40;;;;;;6243945;28;20369;-70
2021/07/31 12:09:58;;;;;;;0.70;0.43;;;24.70;55.40;;;;;;6243918;28;20112;-70
2021/07/31 12:13:08;;;;;;;0.73;0.55;;;24.70;55.40;;;;;;6241788;28;20048;-70
2021/07/31 12:16:09;;;;;;;1.05;0.60;;;24.70;55.40;;;;;;6233953;28;20335;-71
2021/07/31 12:19:09;;;;;;;0.70;0.35;;;24.70;55.40;;;;;;6242451;28;20377;-70
2021/07/31 12:22:16;;;;;;;0.40;0.40;;;24.70;55.50;;;;;;6243548;28;20017;-70
2021/07/31 12:25:18;;;;;;;0.57;0.50;;;24.70;55.40;;;;;;6243547;28;20048;-71
2021/07/31 12:28:39;;;;;;;0.40;0.40;;;24.70;55.40;;;;;;6243687;28;20033;-71
2021/07/31 12:31:40;;;;;;;1.08;0.40;;;24.70;55.50;;;;;;6243364;28;20036;-70
2021/07/31 12:34:40;;;;;;;0.45;0.40;;;24.70;55.50;;;;;;6243855;28;20057;-71
2021/07/31 12:37:48;;;;;;;0.73;0.50;;;24.70;55.50;;;;;;6243734;28;20021;-71
2021/07/31 12:40:54;;;;;;;0.95;0.40;;;24.70;55.40;;;;;;6243122;28;20242;-70
2021/07/31 12:43:54;;;;;;;1.30;0.55;;;24.70;55.50;;;;;;6243258;28;20037;-71
2021/07/31 12:46:55;;;;;;;0.60;0.52;;;24.70;55.50;;;;;;6243752;28;20501;-71
2021/07/31 12:49:55;;;;;;;0.95;0.60;;;24.70;55.50;;;;;;6244182;28;20029;-72
2021/07/31 12:52:56;;;;;;;0.45;0.40;;;24.70;55.50;;;;;;6245033;28;20148;-70
2021/07/31 12:55:57;;;;;;;0.50;0.40;;;24.70;55.50;;;;;;6243518;28;20408;-71
2021/07/31 12:58:57;;;;;;;0.65;0.47;;;24.70;55.50;;;;;;6241186;28;20037;-70
2021/07/31 13:01:59;;;;;;;0.40;0.40;;;24.70;55.50;;;;;;6242425;28;20034;-70
2021/07/31 13:04:59;;;;;;;0.40;0.40;;;24.70;55.50;;;;;;6243061;28;20041;-71
2021/07/31 13:08:00;;;;;;;0.40;0.40;;;24.70;55.50;;;;;;6242525;28;20530;-70
2021/07/31 13:11:01;;;;;;;1.38;0.55;;;24.70;55.60;;;;;;6242072;28;20396;-70
2021/07/31 13:14:02;;;;;;;0.88;0.43;;;24.70;55.50;;;;;;6232025;28;20033;-71
2021/07/31 13:17:03;;;;;;;0.90;0.50;;;24.70;55.50;;;;;;6230537;28;20021;-70
2021/07/31 13:20:04;;;;;;;0.95;0.50;;;24.70;55.50;;;;;;6242654;28;20025;-70
2021/07/31 13:23:09;;;;;;;0.50;0.43;;;24.70;55.60;;;;;;6242310;28;20025;-71
2021/07/31 13:26:10;;;;;;;;;;;24.70;55.50;;;;;;6243097;28;20260;-70
2021/07/31 13:29:10;;;;;;;0.45;0.32;;;24.70;55.60;;;;;;6240921;28;20405;-70
2021/07/31 13:32:11;;;;;;;0.70;0.50;;;24.70;55.60;;;;;;6242300;28;20249;-70
2021/07/31 13:35:11;;;;;;;0.70;0.43;;;24.70;55.60;;;;;;6242943;28;20390;-71
2021/07/31 13:38:16;;;;;;;0.43;0.40;;;24.70;55.60;;;;;;6242475;28;20116;-70
2021/07/31 13:41:18;;;;;;;;;;;24.60;55.50;;;;;;6242349;28;20029;-70
2021/07/31 13:44:20;;;;;;;0.77;0.50;;;24.60;55.50;;;;;;6242386;28;19917;-70
2021/07/31 13:47:20;;;;;;;0.40;0.32;;;24.60;55.50;;;;;;6241674;28;20032;-70
2021/07/31 13:50:20;;;;;;;0.22;0.22;;;24.60;55.50;;;;;;6242018;28;20485;-70
2021/07/31 13:53:21;;;;;;;0.40;0.40;;;24.60;55.50;;;;;;6241736;28;20101;-71
2021/07/31 13:56:22;;;;;;;0.50;0.50;;;24.60;55.50;;;;;;6241483;28;20053;-71
2021/07/31 13:59:25;;;;;;;0.40;0.40;;;24.60;55.50;;;;;;6242688;28;20151;-71
2021/07/31 14:02:25;;;;;;;0.50;0.30;;;24.60;55.50;;;;;;6240704;28;20033;-71
2021/07/31 14:05:26;;;;;;;0.40;0.40;;;24.60;55.50;;;;;;6241251;28;20587;-70
2021/07/31 14:08:26;;;;;;;1.40;0.45;;;24.70;55.60;;;;;;6241226;28;20045;-71
2021/07/31 14:11:27;;;;;;;0.30;0.25;;;24.60;55.50;;;;;;6241616;28;20044;-70
2021/07/31 14:14:27;;;;;;;0.30;0.30;;;24.60;55.50;;;;;;6234197;28;20029;-70
2021/07/31 14:17:28;;;;;;;0.68;0.40;;;24.60;55.50;;;;;;6241464;28;20025;-71
2021/07/31 14:20:28;;;;;;;0.43;0.40;;;24.60;55.50;;;;;;6241446;28;20374;-70
2021/07/31 14:23:29;;;;;;;0.40;0.40;;;24.60;55.50;;;;;;6240171;28;20143;-71
2021/07/31 14:26:29;;;;;;;0.47;0.32;;;24.60;55.50;;;;;;6241236;28;20087;-70
2021/07/31 14:29:30;;;;;;;0.20;0.20;;;24.60;55.50;;;;;;6240824;28;20377;-70
2021/07/31 14:32:31;;;;;;;0.80;0.50;;;24.60;55.50;;;;;;6243630;28;20026;-70
2021/07/31 14:35:32;;;;;;;0.85;0.70;;;24.60;55.50;;;;;;6241491;28;20300;-70
2021/07/31 14:38:32;;;;;;;0.70;0.60;;;24.60;55.50;;;;;;6240675;28;20227;-70
2021/07/31 14:41:33;;;;;;;0.30;0.30;;;24.60;55.50;;;;;;6240684;28;20030;-70
2021/07/31 14:44:34;;;;;;;0.45;0.40;;;24.70;55.60;;;;;;6240668;28;20124;-71
2021/07/31 14:47:35;;;;;;;0.47;0.45;;;24.60;55.50;;;;;;6241064;28;20104;-70
2021/07/31 14:50:41;;;;;;;0.40;0.40;;;24.70;55.60;;;;;;6240825;28;20391;-70
2021/07/31 14:53:41;;;;;;;0.57;0.40;;;24.60;55.60;;;;;;6240244;28;20037;-71
2021/07/31 14:56:42;;;;;;;0.40;0.35;;;24.60;55.60;;;;;;6240764;28;20160;-70
2021/07/31 14:59:43;;;;;;;0.40;0.35;;;24.70;55.70;;;;;;6240885;28;20025;-70
2021/07/31 15:02:44;;;;;;;0.55;0.40;;;24.60;55.50;;;;;;6240578;28;20120;-70
2021/07/31 15:05:44;;;;;;;0.50;0.40;;;24.60;55.60;;;;;;6240962;28;20487;-70
2021/07/31 15:08:45;;;;;;;0.38;0.38;;;24.60;55.60;;;;;;6240253;28;20033;-71
2021/07/31 15:11:45;;;;;;;0.50;0.40;;;24.60;55.60;;;;;;6240532;28;20115;-71
2021/07/31 15:14:46;;;;;;;0.50;0.40;;;24.60;55.60;;;;;;6239182;28;20022;-70
2021/07/31 15:17:46;;;;;;;0.63;0.40;;;24.60;55.60;;;;;;6238379;28;20518;-70
2021/07/31 15:20:47;;;;;;;0.70;0.50;;;24.70;55.70;;;;;;6240514;28;20109;-71
2021/07/31 15:23:47;;;;;;;1.73;0.70;;;24.60;55.60;;;;;;6240249;28;20037;-70
2021/07/31 15:26:48;;;;;;;0.50;0.45;;;24.60;55.60;;;;;;6240832;28;20467;-71
2021/07/31 15:29:48;;;;;;;2.25;0.60;;;24.60;55.60;;;;;;6238396;28;20034;-71
2021/07/31 15:32:50;;;;;;;0.40;0.40;;;24.60;55.60;;;;;;6240176;28;20108;-70
2021/07/31 15:35:58;;;;;;;0.50;0.40;;;24.70;55.70;;;;;;6243115;28;20338;-71
2021/07/31 15:38:59;;;;;;;0.80;0.50;;;24.60;55.70;;;;;;6244431;28;20351;-71
2021/07/31 15:41:59;;;;;;;0.25;0.25;;;24.60;55.60;;;;;;6244684;28;20116;-70
2021/07/31 15:45:03;;;;;;;0.40;0.30;;;24.60;55.60;;;;;;6245015;28;20037;-71
2021/07/31 15:48:04;;;;;;;0.40;0.30;;;24.60;55.60;;;;;;6245070;28;20552;-70